sensor_id;sensor_type;location;lat;lon;timestamp;temperature;humidity
52965;DHT22;42923;53.220;6.528;2023-05-19T00:00:55;7.90;99.90
52965;DHT22;42923;53.220;6.528;2023-05-19T00:03:22;7.90;99.90
52965;DHT22;42923;53.220;6.528;2023-05-19T00:05:52;8.20;99.90
52965;DHT22;42923;53.220;6.528;2023-05-19T00:08:18;8.00;99.90
52965;DHT22;42923;53.220;6.528;2023-05-19T00:10:45;8.00;99.90
52965;DHT22;42923;53.220;6.528;2023-05-19T00:13:11;8.00;99.90
52965;DHT22;42923;53.220;6.528;2023-05-19T00:15:37;8.00;99.90
52965;DHT22;42923;53.220;6.528;2023-05-19T00:18:03;8.00;99.90
52965;DHT22;42923;53.220;6.528;2023-05-19T00:20:28;8.00;99.90
52965;DHT22;42923;53.220;6.528;2023-05-19T00:22:54;8.00;99.90
52965;DHT22;42923;53.220;6.528;2023-05-19T00:25:20;8.00;99.90
52965;DHT22;42923;53.220;6.528;2023-05-19T00:27:46;8.10;99.90
52965;DHT22;42923;53.220;6.528;2023-05-19T00:30:12;8.00;99.90
52965;DHT22;42923;53.220;6.528;2023-05-19T00:32:38;8.00;99.90
52965;DHT22;42923;53.220;6.528;2023-05-19T00:35:04;8.00;99.90
52965;DHT22;42923;53.220;6.528;2023-05-19T00:37:30;8.00;99.90
52965;DHT22;42923;53.220;6.528;2023-05-19T00:39:56;8.00;99.90
52965;DHT22;42923;53.220;6.528;2023-05-19T00:42:23;8.00;99.90
52965;DHT22;42923;53.220;6.528;2023-05-19T00:44:49;7.90;99.90
52965;DHT22;42923;53.220;6.528;2023-05-19T00:47:15;8.30;99.90
52965;DHT22;42923;53.220;6.528;2023-05-19T00:49:41;8.10;99.90
52965;DHT22;42923;53.220;6.528;2023-05-19T00:52:06;8.00;99.90
52965;DHT22;42923;53.220;6.528;2023-05-19T00:54:33;8.00;99.90
52965;DHT22;42923;53.220;6.528;2023-05-19T00:56:59;8.00;99.90
52965;DHT22;42923;53.220;6.528;2023-05-19T00:59:25;8.00;99.90
52965;DHT22;42923;53.220;6.528;2023-05-19T01:01:52;7.90;99.90
52965;DHT22;42923;53.220;6.528;2023-05-19T01:04:27;7.90;99.90
52965;DHT22;42923;53.220;6.528;2023-05-19T01:06:54;8.00;99.90
52965;DHT22;42923;53.220;6.528;2023-05-19T01:09:21;8.00;99.90
52965;DHT22;42923;53.220;6.528;2023-05-19T01:11:50;7.90;99.90
52965;DHT22;42923;53.220;6.528;2023-05-19T01:14:17;7.90;99.90
52965;DHT22;42923;53.220;6.528;2023-05-19T01:16:52;7.90;99.90
52965;DHT22;42923;53.220;6.528;2023-05-19T01:19:42;7.90;99.90
52965;DHT22;42923;53.220;6.528;2023-05-19T01:22:31;7.90;99.90
52965;DHT22;42923;53.220;6.528;2023-05-19T01:28:07;7.80;99.90
52965;DHT22;42923;53.220;6.528;2023-05-19T01:30:42;7.70;99.90
52965;DHT22;42923;53.220;6.528;2023-05-19T01:33:10;7.70;99.90
52965;DHT22;42923;53.220;6.528;2023-05-19T01:35:39;7.70;99.90
52965;DHT22;42923;53.220;6.528;2023-05-19T01:38:08;7.70;99.90
52965;DHT22;42923;53.220;6.528;2023-05-19T01:40:35;7.70;99.90
52965;DHT22;42923;53.220;6.528;2023-05-19T01:43:02;7.70;99.90
52965;DHT22;42923;53.220;6.528;2023-05-19T01:45:31;7.70;99.90
52965;DHT22;42923;53.220;6.528;2023-05-19T01:47:59;7.70;99.90
52965;DHT22;42923;53.220;6.528;2023-05-19T01:50:26;7.80;99.90
52965;DHT22;42923;53.220;6.528;2023-05-19T01:52:52;7.70;99.90
52965;DHT22;42923;53.220;6.528;2023-05-19T01:55:19;7.70;99.90
52965;DHT22;42923;53.220;6.528;2023-05-19T01:57:49;7.80;99.90
52965;DHT22;42923;53.220;6.528;2023-05-19T02:03:12;7.70;99.90
52965;DHT22;42923;53.220;6.528;2023-05-19T02:05:57;7.70;99.90
52965;DHT22;42923;53.220;6.528;2023-05-19T02:08:32;7.70;99.90
52965;DHT22;42923;53.220;6.528;2023-05-19T02:11:09;7.70;99.90
52965;DHT22;42923;53.220;6.528;2023-05-19T02:13:42;7.60;99.90
52965;DHT22;42923;53.220;6.528;2023-05-19T02:16:09;7.60;99.90
52965;DHT22;42923;53.220;6.528;2023-05-19T02:18:39;7.60;99.90
52965;DHT22;42923;53.220;6.528;2023-05-19T02:21:10;7.50;99.90
52965;DHT22;42923;53.220;6.528;2023-05-19T02:23:39;7.50;99.90
52965;DHT22;42923;53.220;6.528;2023-05-19T02:26:06;7.50;99.90
52965;DHT22;42923;53.220;6.528;2023-05-19T02:28:35;7.70;99.90
52965;DHT22;42923;53.220;6.528;2023-05-19T02:31:02;7.60;99.90
52965;DHT22;42923;53.220;6.528;2023-05-19T02:33:29;7.60;99.90
52965;DHT22;42923;53.220;6.528;2023-05-19T02:35:56;7.50;99.90
52965;DHT22;42923;53.220;6.528;2023-05-19T02:38:22;7.50;99.90
52965;DHT22;42923;53.220;6.528;2023-05-19T02:40:50;7.50;99.90
52965;DHT22;42923;53.220;6.528;2023-05-19T02:43:17;7.50;99.90
52965;DHT22;42923;53.220;6.528;2023-05-19T02:45:44;7.50;99.90
52965;DHT22;42923;53.220;6.528;2023-05-19T02:48:09;7.50;99.90
52965;DHT22;42923;53.220;6.528;2023-05-19T02:50:35;7.50;99.90
52965;DHT22;42923;53.220;6.528;2023-05-19T02:53:01;7.50;99.90
52965;DHT22;42923;53.220;6.528;2023-05-19T02:55:27;7.40;99.90
52965;DHT22;42923;53.220;6.528;2023-05-19T02:57:53;7.40;99.90
52965;DHT22;42923;53.220;6.528;2023-05-19T03:00:19;7.40;99.90
52965;DHT22;42923;53.220;6.528;2023-05-19T03:02:45;7.40;99.90
52965;DHT22;42923;53.220;6.528;2023-05-19T03:05:10;7.40;99.90
52965;DHT22;42923;53.220;6.528;2023-05-19T03:07:36;7.40;99.90
52965;DHT22;42923;53.220;6.528;2023-05-19T03:10:02;7.40;99.90
52965;DHT22;42923;53.220;6.528;2023-05-19T03:12:28;7.40;99.90
52965;DHT22;42923;53.220;6.528;2023-05-19T03:14:54;7.40;99.90
52965;DHT22;42923;53.220;6.528;2023-05-19T03:17:20;7.40;99.90
52965;DHT22;42923;53.220;6.528;2023-05-19T03:19:46;7.30;99.90
52965;DHT22;42923;53.220;6.528;2023-05-19T03:22:11;7.40;99.90
52965;DHT22;42923;53.220;6.528;2023-05-19T03:24:37;7.30;99.90
52965;DHT22;42923;53.220;6.528;2023-05-19T03:27:04;7.30;99.90
52965;DHT22;42923;53.220;6.528;2023-05-19T03:29:30;7.30;99.90
52965;DHT22;42923;53.220;6.528;2023-05-19T03:31:56;7.30;99.90
52965;DHT22;42923;53.220;6.528;2023-05-19T03:34:22;7.40;99.90
52965;DHT22;42923;53.220;6.528;2023-05-19T03:36:47;7.40;99.90
52965;DHT22;42923;53.220;6.528;2023-05-19T03:39:15;7.40;99.90
52965;DHT22;42923;53.220;6.528;2023-05-19T03:41:42;7.40;99.90
52965;DHT22;42923;53.220;6.528;2023-05-19T03:44:07;7.40;99.90
52965;DHT22;42923;53.220;6.528;2023-05-19T03:46:33;7.60;99.90
52965;DHT22;42923;53.220;6.528;2023-05-19T03:49:15;7.50;99.90
52965;DHT22;42923;53.220;6.528;2023-05-19T03:51:59;7.50;99.90
52965;DHT22;42923;53.220;6.528;2023-05-19T03:54:47;7.50;99.90
52965;DHT22;42923;53.220;6.528;2023-05-19T03:57:13;7.50;99.90
52965;DHT22;42923;53.220;6.528;2023-05-19T03:59:39;7.50;99.90
52965;DHT22;42923;53.220;6.528;2023-05-19T04:02:06;7.50;99.90
52965;DHT22;42923;53.220;6.528;2023-05-19T04:04:31;7.50;99.90
52965;DHT22;42923;53.220;6.528;2023-05-19T04:06:57;7.50;99.90
52965;DHT22;42923;53.220;6.528;2023-05-19T04:09:23;7.80;99.90
52965;DHT22;42923;53.220;6.528;2023-05-19T04:11:49;7.40;99.90
52965;DHT22;42923;53.220;6.528;2023-05-19T04:14:15;7.90;99.90
52965;DHT22;42923;53.220;6.528;2023-05-19T04:16:42;7.50;99.90
52965;DHT22;42923;53.220;6.528;2023-05-19T04:19:08;7.50;99.90
52965;DHT22;42923;53.220;6.528;2023-05-19T04:21:34;7.60;99.90
52965;DHT22;42923;53.220;6.528;2023-05-19T04:24:00;7.60;99.90
52965;DHT22;42923;53.220;6.528;2023-05-19T04:26:26;7.70;99.90
52965;DHT22;42923;53.220;6.528;2023-05-19T04:28:55;7.80;99.90
52965;DHT22;42923;53.220;6.528;2023-05-19T04:31:22;7.80;99.90
52965;DHT22;42923;53.220;6.528;2023-05-19T04:33:48;7.90;99.90
52965;DHT22;42923;53.220;6.528;2023-05-19T04:36:14;7.90;99.90
52965;DHT22;42923;53.220;6.528;2023-05-19T04:38:42;7.90;99.90
52965;DHT22;42923;53.220;6.528;2023-05-19T04:41:10;8.00;99.90
52965;DHT22;42923;53.220;6.528;2023-05-19T04:43:37;8.00;99.90
52965;DHT22;42923;53.220;6.528;2023-05-19T04:46:10;8.00;99.90
52965;DHT22;42923;53.220;6.528;2023-05-19T04:48:36;8.10;99.90
52965;DHT22;42923;53.220;6.528;2023-05-19T04:51:02;8.20;99.90
52965;DHT22;42923;53.220;6.528;2023-05-19T04:53:29;8.20;99.90
52965;DHT22;42923;53.220;6.528;2023-05-19T04:55:56;8.30;99.90
52965;DHT22;42923;53.220;6.528;2023-05-19T04:58:22;8.40;99.90
52965;DHT22;42923;53.220;6.528;2023-05-19T05:00:51;8.50;99.90
52965;DHT22;42923;53.220;6.528;2023-05-19T05:03:17;8.60;99.90
52965;DHT22;42923;53.220;6.528;2023-05-19T05:05:43;8.60;99.90
52965;DHT22;42923;53.220;6.528;2023-05-19T05:08:09;8.70;99.90
52965;DHT22;42923;53.220;6.528;2023-05-19T05:10:39;8.80;99.90
52965;DHT22;42923;53.220;6.528;2023-05-19T05:13:06;8.90;99.90
52965;DHT22;42923;53.220;6.528;2023-05-19T05:15:32;8.90;99.90
52965;DHT22;42923;53.220;6.528;2023-05-19T05:18:00;9.00;99.90
52965;DHT22;42923;53.220;6.528;2023-05-19T05:20:26;9.10;99.90
52965;DHT22;42923;53.220;6.528;2023-05-19T05:22:52;9.10;99.90
52965;DHT22;42923;53.220;6.528;2023-05-19T05:25:19;9.20;99.90
52965;DHT22;42923;53.220;6.528;2023-05-19T05:27:46;9.20;99.90
52965;DHT22;42923;53.220;6.528;2023-05-19T05:30:12;9.30;99.90
52965;DHT22;42923;53.220;6.528;2023-05-19T05:32:39;9.40;99.90
52965;DHT22;42923;53.220;6.528;2023-05-19T05:35:11;9.50;99.90
52965;DHT22;42923;53.220;6.528;2023-05-19T05:37:37;9.60;99.90
52965;DHT22;42923;53.220;6.528;2023-05-19T05:40:03;9.70;99.90
52965;DHT22;42923;53.220;6.528;2023-05-19T05:42:32;9.70;99.90
52965;DHT22;42923;53.220;6.528;2023-05-19T05:44:57;9.80;99.90
52965;DHT22;42923;53.220;6.528;2023-05-19T05:47:23;9.90;99.90
52965;DHT22;42923;53.220;6.528;2023-05-19T05:49:49;9.90;99.90
52965;DHT22;42923;53.220;6.528;2023-05-19T05:52:17;10.00;99.90
52965;DHT22;42923;53.220;6.528;2023-05-19T05:54:47;10.50;99.90
52965;DHT22;42923;53.220;6.528;2023-05-19T05:57:15;10.20;99.90
52965;DHT22;42923;53.220;6.528;2023-05-19T05:59:42;10.20;99.90
52965;DHT22;42923;53.220;6.528;2023-05-19T06:02:10;10.30;99.90
52965;DHT22;42923;53.220;6.528;2023-05-19T06:04:38;10.40;99.90
52965;DHT22;42923;53.220;6.528;2023-05-19T06:07:05;10.40;99.90
52965;DHT22;42923;53.220;6.528;2023-05-19T06:09:35;10.50;99.90
52965;DHT22;42923;53.220;6.528;2023-05-19T06:12:02;10.70;99.90
52965;DHT22;42923;53.220;6.528;2023-05-19T06:14:33;10.70;99.90
52965;DHT22;42923;53.220;6.528;2023-05-19T06:17:19;10.80;99.90
52965;DHT22;42923;53.220;6.528;2023-05-19T06:19:45;10.90;99.90
52965;DHT22;42923;53.220;6.528;2023-05-19T06:22:10;11.00;99.90
52965;DHT22;42923;53.220;6.528;2023-05-19T06:24:36;11.10;99.90
52965;DHT22;42923;53.220;6.528;2023-05-19T06:27:02;11.20;99.90
52965;DHT22;42923;53.220;6.528;2023-05-19T06:29:28;11.30;99.90
52965;DHT22;42923;53.220;6.528;2023-05-19T06:31:58;11.50;99.90
52965;DHT22;42923;53.220;6.528;2023-05-19T06:34:24;11.60;99.90
52965;DHT22;42923;53.220;6.528;2023-05-19T06:36:49;11.80;99.90
52965;DHT22;42923;53.220;6.528;2023-05-19T06:39:17;11.90;99.90
52965;DHT22;42923;53.220;6.528;2023-05-19T06:41:43;12.00;99.90
52965;DHT22;42923;53.220;6.528;2023-05-19T06:44:09;12.10;99.90
52965;DHT22;42923;53.220;6.528;2023-05-19T06:46:35;12.20;99.90
52965;DHT22;42923;53.220;6.528;2023-05-19T06:49:01;12.30;99.90
52965;DHT22;42923;53.220;6.528;2023-05-19T06:51:31;12.40;99.90
52965;DHT22;42923;53.220;6.528;2023-05-19T06:53:56;12.50;99.90
52965;DHT22;42923;53.220;6.528;2023-05-19T06:56:23;12.50;99.90
52965;DHT22;42923;53.220;6.528;2023-05-19T06:58:49;12.60;99.90
52965;DHT22;42923;53.220;6.528;2023-05-19T07:01:15;12.70;99.90
52965;DHT22;42923;53.220;6.528;2023-05-19T07:03:47;12.80;99.90
52965;DHT22;42923;53.220;6.528;2023-05-19T07:06:14;12.90;99.90
52965;DHT22;42923;53.220;6.528;2023-05-19T07:08:40;13.00;99.90
52965;DHT22;42923;53.220;6.528;2023-05-19T07:11:07;13.10;99.90
52965;DHT22;42923;53.220;6.528;2023-05-19T07:13:33;13.30;99.90
52965;DHT22;42923;53.220;6.528;2023-05-19T07:15:59;13.30;99.90
52965;DHT22;42923;53.220;6.528;2023-05-19T07:18:27;13.60;99.90
52965;DHT22;42923;53.220;6.528;2023-05-19T07:20:56;13.70;99.90
52965;DHT22;42923;53.220;6.528;2023-05-19T07:23:23;13.80;99.90
52965;DHT22;42923;53.220;6.528;2023-05-19T07:25:49;14.00;99.90
52965;DHT22;42923;53.220;6.528;2023-05-19T07:28:17;14.10;99.90
52965;DHT22;42923;53.220;6.528;2023-05-19T07:30:43;14.20;99.90
52965;DHT22;42923;53.220;6.528;2023-05-19T07:33:09;14.40;99.90
52965;DHT22;42923;53.220;6.528;2023-05-19T07:35:35;14.50;99.90
52965;DHT22;42923;53.220;6.528;2023-05-19T07:38:00;14.50;99.90
52965;DHT22;42923;53.220;6.528;2023-05-19T07:40:26;14.60;99.90
52965;DHT22;42923;53.220;6.528;2023-05-19T07:42:52;14.60;99.90
52965;DHT22;42923;53.220;6.528;2023-05-19T07:45:18;14.70;99.90
52965;DHT22;42923;53.220;6.528;2023-05-19T07:47:44;14.70;99.90
52965;DHT22;42923;53.220;6.528;2023-05-19T07:50:09;14.80;99.90
52965;DHT22;42923;53.220;6.528;2023-05-19T07:52:35;15.00;99.90
52965;DHT22;42923;53.220;6.528;2023-05-19T07:55:01;15.10;99.90
52965;DHT22;42923;53.220;6.528;2023-05-19T07:57:27;15.20;99.90
52965;DHT22;42923;53.220;6.528;2023-05-19T07:59:53;15.30;99.90
52965;DHT22;42923;53.220;6.528;2023-05-19T08:02:18;15.40;99.90
52965;DHT22;42923;53.220;6.528;2023-05-19T08:04:44;15.40;99.90
52965;DHT22;42923;53.220;6.528;2023-05-19T08:07:10;15.50;99.90
52965;DHT22;42923;53.220;6.528;2023-05-19T08:09:36;15.50;99.90
52965;DHT22;42923;53.220;6.528;2023-05-19T08:12:01;15.60;99.90
52965;DHT22;42923;53.220;6.528;2023-05-19T08:14:29;15.60;99.90
52965;DHT22;42923;53.220;6.528;2023-05-19T08:16:55;15.70;99.90
52965;DHT22;42923;53.220;6.528;2023-05-19T08:19:21;15.90;99.90
52965;DHT22;42923;53.220;6.528;2023-05-19T08:21:47;16.00;99.90
52965;DHT22;42923;53.220;6.528;2023-05-19T08:24:12;16.20;99.90
52965;DHT22;42923;53.220;6.528;2023-05-19T08:26:38;16.20;99.90
52965;DHT22;42923;53.220;6.528;2023-05-19T08:29:04;16.30;99.90
52965;DHT22;42923;53.220;6.528;2023-05-19T08:31:30;16.30;99.90
52965;DHT22;42923;53.220;6.528;2023-05-19T08:33:55;16.30;99.90
52965;DHT22;42923;53.220;6.528;2023-05-19T08:36:21;16.30;99.90
52965;DHT22;42923;53.220;6.528;2023-05-19T08:38:47;16.30;99.90
52965;DHT22;42923;53.220;6.528;2023-05-19T08:41:12;16.30;99.90
52965;DHT22;42923;53.220;6.528;2023-05-19T08:43:38;16.30;99.90
52965;DHT22;42923;53.220;6.528;2023-05-19T08:46:04;16.50;99.90
52965;DHT22;42923;53.220;6.528;2023-05-19T08:48:34;16.70;99.90
52965;DHT22;42923;53.220;6.528;2023-05-19T08:51:26;16.70;99.90
52965;DHT22;42923;53.220;6.528;2023-05-19T08:53:59;16.70;99.90
52965;DHT22;42923;53.220;6.528;2023-05-19T08:56:27;16.70;99.90
52965;DHT22;42923;53.220;6.528;2023-05-19T08:58:53;16.60;99.90
52965;DHT22;42923;53.220;6.528;2023-05-19T09:01:19;16.60;99.90
52965;DHT22;42923;53.220;6.528;2023-05-19T09:03:47;16.50;99.90
52965;DHT22;42923;53.220;6.528;2023-05-19T09:06:14;16.60;99.90
52965;DHT22;42923;53.220;6.528;2023-05-19T09:08:40;16.70;99.90
52965;DHT22;42923;53.220;6.528;2023-05-19T09:11:11;16.70;99.90
52965;DHT22;42923;53.220;6.528;2023-05-19T09:13:37;16.80;99.90
52965;DHT22;42923;53.220;6.528;2023-05-19T09:16:04;16.90;99.90
52965;DHT22;42923;53.220;6.528;2023-05-19T09:18:30;16.90;99.90
52965;DHT22;42923;53.220;6.528;2023-05-19T09:20:57;16.90;99.90
52965;DHT22;42923;53.220;6.528;2023-05-19T09:23:31;17.00;99.90
52965;DHT22;42923;53.220;6.528;2023-05-19T09:26:02;17.10;99.90
52965;DHT22;42923;53.220;6.528;2023-05-19T09:28:30;17.20;99.90
52965;DHT22;42923;53.220;6.528;2023-05-19T09:31:08;17.30;99.90
52965;DHT22;42923;53.220;6.528;2023-05-19T09:33:38;17.40;99.90
52965;DHT22;42923;53.220;6.528;2023-05-19T09:36:05;17.50;99.90
52965;DHT22;42923;53.220;6.528;2023-05-19T09:38:33;17.50;99.90
52965;DHT22;42923;53.220;6.528;2023-05-19T09:41:00;17.40;99.10
52965;DHT22;42923;53.220;6.528;2023-05-19T09:43:33;17.40;99.70
52965;DHT22;42923;53.220;6.528;2023-05-19T09:46:05;17.50;99.10
52965;DHT22;42923;53.220;6.528;2023-05-19T09:48:32;17.50;97.20
52965;DHT22;42923;53.220;6.528;2023-05-19T09:51:03;17.50;96.40
52965;DHT22;42923;53.220;6.528;2023-05-19T09:53:30;17.50;95.70
52965;DHT22;42923;53.220;6.528;2023-05-19T09:55:57;17.60;96.00
52965;DHT22;42923;53.220;6.528;2023-05-19T09:58:24;17.60;95.20
52965;DHT22;42923;53.220;6.528;2023-05-19T10:00:51;17.70;94.90
52965;DHT22;42923;53.220;6.528;2023-05-19T10:03:20;17.70;94.30
52965;DHT22;42923;53.220;6.528;2023-05-19T10:05:47;17.80;94.40
52965;DHT22;42923;53.220;6.528;2023-05-19T10:08:15;17.90;94.10
52965;DHT22;42923;53.220;6.528;2023-05-19T10:10:44;17.90;93.60
52965;DHT22;42923;53.220;6.528;2023-05-19T10:13:12;18.00;94.50
52965;DHT22;42923;53.220;6.528;2023-05-19T10:15:42;18.10;94.70
52965;DHT22;42923;53.220;6.528;2023-05-19T10:18:11;18.30;94.00
52965;DHT22;42923;53.220;6.528;2023-05-19T10:20:38;18.40;92.10
52965;DHT22;42923;53.220;6.528;2023-05-19T10:23:04;18.30;91.30
52965;DHT22;42923;53.220;6.528;2023-05-19T10:25:32;18.20;91.50
52965;DHT22;42923;53.220;6.528;2023-05-19T10:28:07;18.30;91.30
52965;DHT22;42923;53.220;6.528;2023-05-19T10:30:46;18.30;91.40
52965;DHT22;42923;53.220;6.528;2023-05-19T10:33:15;18.40;91.30
52965;DHT22;42923;53.220;6.528;2023-05-19T10:35:53;18.50;91.20
52965;DHT22;42923;53.220;6.528;2023-05-19T10:38:34;18.70;90.30
52965;DHT22;42923;53.220;6.528;2023-05-19T10:41:06;18.90;90.10
52965;DHT22;42923;53.220;6.528;2023-05-19T10:45:59;19.10;81.50
52965;DHT22;42923;53.220;6.528;2023-05-19T10:48:25;19.10;81.10
52965;DHT22;42923;53.220;6.528;2023-05-19T10:50:55;19.20;78.80
52965;DHT22;42923;53.220;6.528;2023-05-19T10:53:21;19.40;78.80
52965;DHT22;42923;53.220;6.528;2023-05-19T10:55:55;19.30;77.90
52965;DHT22;42923;53.220;6.528;2023-05-19T11:01:11;19.50;78.40
52965;DHT22;42923;53.220;6.528;2023-05-19T11:03:50;19.70;74.20
52965;DHT22;42923;53.220;6.528;2023-05-19T11:06:29;19.90;74.70
52965;DHT22;42923;53.220;6.528;2023-05-19T11:09:13;20.10;75.20
52965;DHT22;42923;53.220;6.528;2023-05-19T11:11:51;20.50;75.80
52965;DHT22;42923;53.220;6.528;2023-05-19T11:14:25;20.80;75.80
52965;DHT22;42923;53.220;6.528;2023-05-19T11:16:55;20.90;73.80
52965;DHT22;42923;53.220;6.528;2023-05-19T11:19:27;21.00;74.00
52965;DHT22;42923;53.220;6.528;2023-05-19T11:21:54;21.20;72.20
52965;DHT22;42923;53.220;6.528;2023-05-19T11:24:36;21.40;72.20
52965;DHT22;42923;53.220;6.528;2023-05-19T11:29:54;21.60;66.60
52965;DHT22;42923;53.220;6.528;2023-05-19T11:32:21;21.60;69.70
52965;DHT22;42923;53.220;6.528;2023-05-19T11:34:50;21.70;68.00
52965;DHT22;42923;53.220;6.528;2023-05-19T11:37:16;21.80;69.10
52965;DHT22;42923;53.220;6.528;2023-05-19T11:39:41;21.70;68.70
52965;DHT22;42923;53.220;6.528;2023-05-19T11:42:08;21.60;68.40
52965;DHT22;42923;53.220;6.528;2023-05-19T11:44:35;21.60;68.80
52965;DHT22;42923;53.220;6.528;2023-05-19T11:47:03;21.70;69.70
52965;DHT22;42923;53.220;6.528;2023-05-19T11:49:29;22.00;68.90
52965;DHT22;42923;53.220;6.528;2023-05-19T11:51:56;21.90;66.90
52965;DHT22;42923;53.220;6.528;2023-05-19T11:54:29;21.70;66.60
52965;DHT22;42923;53.220;6.528;2023-05-19T11:56:58;21.70;66.50
52965;DHT22;42923;53.220;6.528;2023-05-19T11:59:35;21.80;66.80
52965;DHT22;42923;53.220;6.528;2023-05-19T12:04:43;22.20;66.40
52965;DHT22;42923;53.220;6.528;2023-05-19T12:07:14;22.30;66.30
52965;DHT22;42923;53.220;6.528;2023-05-19T12:09:43;22.10;64.80
52965;DHT22;42923;53.220;6.528;2023-05-19T12:12:13;21.80;65.00
52965;DHT22;42923;53.220;6.528;2023-05-19T12:14:39;21.70;65.40
52965;DHT22;42923;53.220;6.528;2023-05-19T12:17:15;21.80;66.10
52965;DHT22;42923;53.220;6.528;2023-05-19T12:19:46;22.00;66.60
52965;DHT22;42923;53.220;6.528;2023-05-19T12:22:13;22.20;65.50
52965;DHT22;42923;53.220;6.528;2023-05-19T12:24:39;22.50;65.20
52965;DHT22;42923;53.220;6.528;2023-05-19T12:27:18;22.90;64.80
52965;DHT22;42923;53.220;6.528;2023-05-19T12:29:52;23.20;63.40
52965;DHT22;42923;53.220;6.528;2023-05-19T12:32:22;23.50;63.30
52965;DHT22;42923;53.220;6.528;2023-05-19T12:34:49;23.50;62.50
52965;DHT22;42923;53.220;6.528;2023-05-19T12:37:15;23.30;63.20
52965;DHT22;42923;53.220;6.528;2023-05-19T12:39:41;23.10;61.20
52965;DHT22;42923;53.220;6.528;2023-05-19T12:42:08;23.00;62.40
52965;DHT22;42923;53.220;6.528;2023-05-19T12:44:52;23.00;61.40
52965;DHT22;42923;53.220;6.528;2023-05-19T12:47:19;22.90;60.70
52965;DHT22;42923;53.220;6.528;2023-05-19T12:50:01;22.80;61.80
52965;DHT22;42923;53.220;6.528;2023-05-19T12:52:29;22.90;62.60
52965;DHT22;42923;53.220;6.528;2023-05-19T12:55:05;23.00;62.10
52965;DHT22;42923;53.220;6.528;2023-05-19T12:57:39;23.20;60.20
52965;DHT22;42923;53.220;6.528;2023-05-19T13:00:13;23.20;61.70
52965;DHT22;42923;53.220;6.528;2023-05-19T13:02:59;23.40;62.60
52965;DHT22;42923;53.220;6.528;2023-05-19T13:05:31;23.70;62.80
52965;DHT22;42923;53.220;6.528;2023-05-19T13:10:24;23.80;61.90
52965;DHT22;42923;53.220;6.528;2023-05-19T13:12:53;23.90;61.30
52965;DHT22;42923;53.220;6.528;2023-05-19T13:15:21;23.90;60.80
52965;DHT22;42923;53.220;6.528;2023-05-19T13:17:47;23.70;60.60
52965;DHT22;42923;53.220;6.528;2023-05-19T13:20:13;23.50;60.80
52965;DHT22;42923;53.220;6.528;2023-05-19T13:22:39;23.20;60.10
52965;DHT22;42923;53.220;6.528;2023-05-19T13:25:05;23.10;60.40
52965;DHT22;42923;53.220;6.528;2023-05-19T13:27:31;23.10;60.70
52965;DHT22;42923;53.220;6.528;2023-05-19T13:29:57;23.40;60.50
52965;DHT22;42923;53.220;6.528;2023-05-19T13:32:22;23.40;60.50
52965;DHT22;42923;53.220;6.528;2023-05-19T13:34:48;23.20;60.30
52965;DHT22;42923;53.220;6.528;2023-05-19T13:37:14;22.90;60.70
52965;DHT22;42923;53.220;6.528;2023-05-19T13:39:40;22.80;61.50
52965;DHT22;42923;53.220;6.528;2023-05-19T13:42:05;22.90;61.40
52965;DHT22;42923;53.220;6.528;2023-05-19T13:44:31;22.80;60.80
52965;DHT22;42923;53.220;6.528;2023-05-19T13:46:57;22.50;62.10
52965;DHT22;42923;53.220;6.528;2023-05-19T13:49:23;22.50;63.20
52965;DHT22;42923;53.220;6.528;2023-05-19T13:51:54;22.50;64.20
52965;DHT22;42923;53.220;6.528;2023-05-19T13:54:20;22.60;64.70
52965;DHT22;42923;53.220;6.528;2023-05-19T13:56:45;22.70;64.80
52965;DHT22;42923;53.220;6.528;2023-05-19T13:59:13;22.60;65.80
52965;DHT22;42923;53.220;6.528;2023-05-19T14:01:39;22.70;66.00
52965;DHT22;42923;53.220;6.528;2023-05-19T14:04:04;22.70;66.20
52965;DHT22;42923;53.220;6.528;2023-05-19T14:06:30;22.50;66.40
52965;DHT22;42923;53.220;6.528;2023-05-19T14:08:56;22.30;66.10
52965;DHT22;42923;53.220;6.528;2023-05-19T14:11:22;22.10;66.70
52965;DHT22;42923;53.220;6.528;2023-05-19T14:13:48;21.90;67.40
52965;DHT22;42923;53.220;6.528;2023-05-19T14:16:16;21.80;68.80
52965;DHT22;42923;53.220;6.528;2023-05-19T14:18:43;21.80;68.70
52965;DHT22;42923;53.220;6.528;2023-05-19T14:21:08;21.80;67.80
52965;DHT22;42923;53.220;6.528;2023-05-19T14:23:34;21.70;68.10
52965;DHT22;42923;53.220;6.528;2023-05-19T14:26:00;21.60;69.20
52965;DHT22;42923;53.220;6.528;2023-05-19T14:28:25;21.80;69.20
52965;DHT22;42923;53.220;6.528;2023-05-19T14:30:51;21.80;69.70
52965;DHT22;42923;53.220;6.528;2023-05-19T14:33:17;22.00;69.50
52965;DHT22;42923;53.220;6.528;2023-05-19T14:35:44;21.90;69.70
52965;DHT22;42923;53.220;6.528;2023-05-19T14:38:10;21.80;69.60
52965;DHT22;42923;53.220;6.528;2023-05-19T14:40:38;21.50;69.70
52965;DHT22;42923;53.220;6.528;2023-05-19T14:43:07;21.30;70.50
52965;DHT22;42923;53.220;6.528;2023-05-19T14:45:33;21.30;71.10
52965;DHT22;42923;53.220;6.528;2023-05-19T14:47:59;21.30;70.80
52965;DHT22;42923;53.220;6.528;2023-05-19T14:50:28;21.30;70.90
52965;DHT22;42923;53.220;6.528;2023-05-19T14:52:55;21.30;71.20
52965;DHT22;42923;53.220;6.528;2023-05-19T14:55:24;21.50;71.30
52965;DHT22;42923;53.220;6.528;2023-05-19T14:57:50;21.40;71.20
52965;DHT22;42923;53.220;6.528;2023-05-19T15:00:16;21.10;70.90
52965;DHT22;42923;53.220;6.528;2023-05-19T15:02:42;20.90;71.60
52965;DHT22;42923;53.220;6.528;2023-05-19T15:05:08;21.00;72.30
52965;DHT22;42923;53.220;6.528;2023-05-19T15:07:34;21.40;72.40
52965;DHT22;42923;53.220;6.528;2023-05-19T15:10:00;21.70;72.00
52965;DHT22;42923;53.220;6.528;2023-05-19T15:12:26;21.90;71.10
52965;DHT22;42923;53.220;6.528;2023-05-19T15:14:52;22.00;71.50
52965;DHT22;42923;53.220;6.528;2023-05-19T15:17:18;22.10;70.80
52965;DHT22;42923;53.220;6.528;2023-05-19T15:19:44;21.80;70.00
52965;DHT22;42923;53.220;6.528;2023-05-19T15:22:09;21.40;70.50
52965;DHT22;42923;53.220;6.528;2023-05-19T15:24:35;21.10;71.20
52965;DHT22;42923;53.220;6.528;2023-05-19T15:27:01;20.80;71.70
52965;DHT22;42923;53.220;6.528;2023-05-19T15:29:27;20.60;72.30
52965;DHT22;42923;53.220;6.528;2023-05-19T15:31:52;20.40;72.90
52965;DHT22;42923;53.220;6.528;2023-05-19T15:34:19;20.30;73.40
52965;DHT22;42923;53.220;6.528;2023-05-19T15:36:45;20.30;73.70
52965;DHT22;42923;53.220;6.528;2023-05-19T15:39:12;20.30;74.30
52965;DHT22;42923;53.220;6.528;2023-05-19T15:41:38;20.60;74.60
52965;DHT22;42923;53.220;6.528;2023-05-19T15:44:03;20.40;75.10
52965;DHT22;42923;53.220;6.528;2023-05-19T15:46:31;20.20;74.90
52965;DHT22;42923;53.220;6.528;2023-05-19T15:48:57;19.90;74.90
52965;DHT22;42923;53.220;6.528;2023-05-19T15:51:23;19.60;75.60
52965;DHT22;42923;53.220;6.528;2023-05-19T15:53:48;19.30;76.10
52965;DHT22;42923;53.220;6.528;2023-05-19T15:56:14;19.10;76.70
52965;DHT22;42923;53.220;6.528;2023-05-19T15:58:40;18.80;77.60
52965;DHT22;42923;53.220;6.528;2023-05-19T16:01:06;18.60;78.60